sensor_id;sensor_type;location;lat;lon;timestamp;pressure;altitude;pressure_sealevel;temperature;humidity
63009;BME280;49099;28.428;-16.488;2023-05-22T00:01:06;98579.75;;;20.28;55.60
63009;BME280;49099;28.428;-16.488;2023-05-22T00:03:34;98579.41;;;20.30;54.93
63009;BME280;49099;28.428;-16.488;2023-05-22T00:06:02;98581.53;;;20.24;55.11
63009;BME280;49099;28.428;-16.488;2023-05-22T00:08:29;98572.78;;;20.27;55.45
63009;BME280;49099;28.428;-16.488;2023-05-22T00:10:57;98572.34;;;20.25;55.03
63009;BME280;49099;28.428;-16.488;2023-05-22T00:13:24;98558.59;;;20.18;54.53
63009;BME280;49099;28.428;-16.488;2023-05-22T00:15:52;98557.50;;;20.11;54.68
63009;BME280;49099;28.428;-16.488;2023-05-22T00:18:19;98563.81;;;20.15;54.87
63009;BME280;49099;28.428;-16.488;2023-05-22T00:20:46;98558.59;;;20.18;54.60
63009;BME280;49099;28.428;-16.488;2023-05-22T00:23:14;98553.03;;;20.23;54.41
63009;BME280;49099;28.428;-16.488;2023-05-22T00:25:41;98537.69;;;20.15;54.34
63009;BME280;49099;28.428;-16.488;2023-05-22T00:28:10;98547.94;;;20.22;54.40
63009;BME280;49099;28.428;-16.488;2023-05-22T00:30:37;98547.63;;;20.23;54.15
63009;BME280;49099;28.428;-16.488;2023-05-22T00:33:05;98541.31;;;20.19;54.41
63009;BME280;49099;28.428;-16.488;2023-05-22T00:35:32;98544.78;;;20.20;54.57
63009;BME280;49099;28.428;-16.488;2023-05-22T00:38:02;98545.84;;;20.27;54.58
63009;BME280;49099;28.428;-16.488;2023-05-22T00:40:30;98542.97;;;20.33;54.33
63009;BME280;49099;28.428;-16.488;2023-05-22T00:42:57;98542.50;;;20.30;55.04
63009;BME280;49099;28.428;-16.488;2023-05-22T00:45:24;98542.03;;;20.28;55.08
63009;BME280;49099;28.428;-16.488;2023-05-22T00:47:52;98546.13;;;20.35;55.13
63009;BME280;49099;28.428;-16.488;2023-05-22T00:50:19;98537.88;;;20.40;55.33
63009;BME280;49099;28.428;-16.488;2023-05-22T00:52:46;98534.69;;;20.38;55.37
63009;BME280;49099;28.428;-16.488;2023-05-22T00:55:14;98532.16;;;20.41;55.18
63009;BME280;49099;28.428;-16.488;2023-05-22T00:57:42;98541.97;;;20.46;55.18
63009;BME280;49099;28.428;-16.488;2023-05-22T01:00:11;98536.25;;;20.47;55.41
63009;BME280;49099;28.428;-16.488;2023-05-22T01:02:39;98541.31;;;20.49;55.35
63009;BME280;49099;28.428;-16.488;2023-05-22T01:05:09;98535.00;;;20.45;55.54
63009;BME280;49099;28.428;-16.488;2023-05-22T01:07:39;98532.78;;;20.47;55.15
63009;BME280;49099;28.428;-16.488;2023-05-22T01:10:06;98525.34;;;20.44;54.98
63009;BME280;49099;28.428;-16.488;2023-05-22T01:18:19;98521.44;;;20.33;55.58
63009;BME280;49099;28.428;-16.488;2023-05-22T01:26:56;98505.91;;;20.29;55.82
63009;BME280;49099;28.428;-16.488;2023-05-22T01:30:09;98505.28;;;20.33;55.94
63009;BME280;49099;28.428;-16.488;2023-05-22T01:32:43;98501.56;;;20.37;55.09
63009;BME280;49099;28.428;-16.488;2023-05-22T01:35:14;98505.34;;;20.45;54.98
63009;BME280;49099;28.428;-16.488;2023-05-22T01:37:44;98492.81;;;20.49;54.92
63009;BME280;49099;28.428;-16.488;2023-05-22T01:40:12;98494.84;;;20.52;55.21
63009;BME280;49099;28.428;-16.488;2023-05-22T01:42:39;98487.44;;;20.49;55.05
63009;BME280;49099;28.428;-16.488;2023-05-22T01:45:10;98486.97;;;20.47;56.02
63009;BME280;49099;28.428;-16.488;2023-05-22T01:47:38;98481.75;;;20.42;56.31
63009;BME280;49099;28.428;-16.488;2023-05-22T01:50:05;98487.00;;;20.38;56.22
63009;BME280;49099;28.428;-16.488;2023-05-22T01:55:17;98474.06;;;20.31;56.72
63009;BME280;49099;28.428;-16.488;2023-05-22T01:57:56;98471.38;;;20.31;56.79
63009;BME280;49099;28.428;-16.488;2023-05-22T02:00:26;98462.19;;;20.33;57.18
63009;BME280;49099;28.428;-16.488;2023-05-22T02:03:03;98460.72;;;20.35;56.83
63009;BME280;49099;28.428;-16.488;2023-05-22T02:05:33;98447.25;;;20.35;56.73
63009;BME280;49099;28.428;-16.488;2023-05-22T02:08:04;98448.63;;;20.41;56.81
63009;BME280;49099;28.428;-16.488;2023-05-22T02:10:33;98445.16;;;20.41;56.64
63009;BME280;49099;28.428;-16.488;2023-05-22T02:13:01;98431.22;;;20.39;56.56
63009;BME280;49099;28.428;-16.488;2023-05-22T02:15:29;98437.06;;;20.41;56.86
63009;BME280;49099;28.428;-16.488;2023-05-22T02:17:58;98431.69;;;20.41;56.42
63009;BME280;49099;28.428;-16.488;2023-05-22T02:20:25;98430.13;;;20.40;56.62
63009;BME280;49099;28.428;-16.488;2023-05-22T02:22:53;98439.97;;;20.36;56.95
63009;BME280;49099;28.428;-16.488;2023-05-22T02:25:20;98444.69;;;20.39;56.55
63009;BME280;49099;28.428;-16.488;2023-05-22T02:27:47;98437.25;;;20.36;56.52
63009;BME280;49099;28.428;-16.488;2023-05-22T02:30:16;98444.22;;;20.37;56.88
63009;BME280;49099;28.428;-16.488;2023-05-22T02:32:43;98449.16;;;20.35;56.56
63009;BME280;49099;28.428;-16.488;2023-05-22T02:35:10;98439.06;;;20.31;56.72
63009;BME280;49099;28.428;-16.488;2023-05-22T02:37:38;98439.50;;;20.34;56.30
63009;BME280;49099;28.428;-16.488;2023-05-22T02:40:05;98432.31;;;20.38;55.62
63009;BME280;49099;28.428;-16.488;2023-05-22T02:42:33;98436.13;;;20.37;55.72
63009;BME280;49099;28.428;-16.488;2023-05-22T02:45:01;98437.06;;;20.41;55.61
63009;BME280;49099;28.428;-16.488;2023-05-22T02:47:28;98439.28;;;20.39;55.63
63009;BME280;49099;28.428;-16.488;2023-05-22T02:49:55;98445.75;;;20.25;56.07
63009;BME280;49099;28.428;-16.488;2023-05-22T02:52:25;98436.94;;;20.16;57.25
63009;BME280;49099;28.428;-16.488;2023-05-22T02:54:54;98440.94;;;20.10;58.97
63009;BME280;49099;28.428;-16.488;2023-05-22T02:57:21;98433.72;;;20.02;60.63
63009;BME280;49099;28.428;-16.488;2023-05-22T02:59:48;98432.59;;;20.03;60.48
63009;BME280;49099;28.428;-16.488;2023-05-22T03:02:15;98434.09;;;20.13;60.47
63009;BME280;49099;28.428;-16.488;2023-05-22T03:04:43;98430.28;;;20.14;59.99
63009;BME280;49099;28.428;-16.488;2023-05-22T03:07:10;98422.09;;;20.10;59.85
63009;BME280;49099;28.428;-16.488;2023-05-22T03:09:38;98417.63;;;20.14;59.98
63009;BME280;49099;28.428;-16.488;2023-05-22T03:12:05;98421.88;;;20.15;60.16
63009;BME280;49099;28.428;-16.488;2023-05-22T03:14:33;98418.09;;;20.16;59.34
63009;BME280;49099;28.428;-16.488;2023-05-22T03:17:00;98416.66;;;20.19;59.65
63009;BME280;49099;28.428;-16.488;2023-05-22T03:19:29;98413.34;;;20.13;60.09
63009;BME280;49099;28.428;-16.488;2023-05-22T03:21:56;98408.31;;;20.12;60.07
63009;BME280;49099;28.428;-16.488;2023-05-22T03:24:24;98410.66;;;20.13;59.61
63009;BME280;49099;28.428;-16.488;2023-05-22T03:26:51;98411.59;;;20.17;58.81
63009;BME280;49099;28.428;-16.488;2023-05-22T03:29:18;98411.59;;;20.17;58.95
63009;BME280;49099;28.428;-16.488;2023-05-22T03:31:46;98399.88;;;20.13;59.19
63009;BME280;49099;28.428;-16.488;2023-05-22T03:34:13;98417.88;;;20.21;59.49
63009;BME280;49099;28.428;-16.488;2023-05-22T03:36:40;98409.34;;;20.19;59.05
63009;BME280;49099;28.428;-16.488;2023-05-22T03:39:08;98409.34;;;20.19;59.43
63009;BME280;49099;28.428;-16.488;2023-05-22T03:41:35;98419.47;;;20.22;59.09
63009;BME280;49099;28.428;-16.488;2023-05-22T03:44:02;98417.16;;;20.12;59.21
63009;BME280;49099;28.428;-16.488;2023-05-22T03:46:30;98425.91;;;20.09;59.28
63009;BME280;49099;28.428;-16.488;2023-05-22T03:48:57;98423.22;;;20.09;59.72
63009;BME280;49099;28.428;-16.488;2023-05-22T03:51:24;98427.47;;;20.10;60.04
63009;BME280;49099;28.428;-16.488;2023-05-22T03:53:51;98422.88;;;20.11;60.93
63009;BME280;49099;28.428;-16.488;2023-05-22T03:56:18;98420.53;;;20.09;60.92
63009;BME280;49099;28.428;-16.488;2023-05-22T03:58:45;98412.75;;;20.08;61.11
63009;BME280;49099;28.428;-16.488;2023-05-22T04:01:13;98410.66;;;20.13;60.29
63009;BME280;49099;28.428;-16.488;2023-05-22T04:03:40;98416.72;;;20.10;60.11
63009;BME280;49099;28.428;-16.488;2023-05-22T04:06:07;98422.38;;;20.17;59.53
63009;BME280;49099;28.428;-16.488;2023-05-22T04:08:34;98422.69;;;20.16;60.42
63009;BME280;49099;28.428;-16.488;2023-05-22T04:11:01;98423.47;;;20.16;60.23
63009;BME280;49099;28.428;-16.488;2023-05-22T04:13:28;98419.84;;;20.12;60.48
63009;BME280;49099;28.428;-16.488;2023-05-22T04:15:56;98419.41;;;20.10;59.25
63009;BME280;49099;28.428;-16.488;2023-05-22T04:18:24;98421.94;;;20.07;59.57
63009;BME280;49099;28.428;-16.488;2023-05-22T04:20:51;98426.22;;;20.08;59.44
63009;BME280;49099;28.428;-16.488;2023-05-22T04:23:18;98436.00;;;20.12;59.68
63009;BME280;49099;28.428;-16.488;2023-05-22T04:25:45;98428.38;;;20.14;59.31
63009;BME280;49099;28.428;-16.488;2023-05-22T04:28:14;98419.19;;;20.15;58.97
63009;BME280;49099;28.428;-16.488;2023-05-22T04:30:43;98423.16;;;20.18;58.91
63009;BME280;49099;28.428;-16.488;2023-05-22T04:33:10;98424.84;;;20.22;58.64
63009;BME280;49099;28.428;-16.488;2023-05-22T04:35:38;98434.19;;;20.25;58.62
63009;BME280;49099;28.428;-16.488;2023-05-22T04:38:06;98432.72;;;20.27;58.44
63009;BME280;49099;28.428;-16.488;2023-05-22T04:40:34;98424.19;;;20.25;57.97
63009;BME280;49099;28.428;-16.488;2023-05-22T04:43:04;98425.50;;;20.19;58.16
63009;BME280;49099;28.428;-16.488;2023-05-22T04:45:31;98425.50;;;20.19;58.38
63009;BME280;49099;28.428;-16.488;2023-05-22T04:47:58;98418.56;;;20.18;57.74
63009;BME280;49099;28.428;-16.488;2023-05-22T04:50:28;98411.59;;;20.17;57.79
63009;BME280;49099;28.428;-16.488;2023-05-22T04:52:58;98413.09;;;20.06;57.49
63009;BME280;49099;28.428;-16.488;2023-05-22T04:55:25;98403.09;;;19.86;57.90
63009;BME280;49099;28.428;-16.488;2023-05-22T04:57:52;98401.31;;;19.69;57.44
63009;BME280;49099;28.428;-16.488;2023-05-22T05:00:20;98416.22;;;19.58;57.65
63009;BME280;49099;28.428;-16.488;2023-05-22T05:02:52;98406.59;;;19.48;57.83
63009;BME280;49099;28.428;-16.488;2023-05-22T05:05:19;98402.00;;;19.48;57.81
63009;BME280;49099;28.428;-16.488;2023-05-22T05:07:48;98413.84;;;19.56;57.56
63009;BME280;49099;28.428;-16.488;2023-05-22T05:10:16;98415.72;;;19.64;56.70
63009;BME280;49099;28.428;-16.488;2023-05-22T05:12:43;98406.72;;;19.60;56.57
63009;BME280;49099;28.428;-16.488;2023-05-22T05:15:10;98408.31;;;19.61;55.14
63009;BME280;49099;28.428;-16.488;2023-05-22T05:17:38;98418.88;;;19.66;55.07
63009;BME280;49099;28.428;-16.488;2023-05-22T05:20:06;98427.16;;;19.61;55.28
63009;BME280;49099;28.428;-16.488;2023-05-22T05:22:33;98431.41;;;19.62;56.18
63009;BME280;49099;28.428;-16.488;2023-05-22T05:25:00;98437.75;;;19.58;56.51
63009;BME280;49099;28.428;-16.488;2023-05-22T05:27:29;98447.41;;;19.50;58.12
63009;BME280;49099;28.428;-16.488;2023-05-22T05:29:56;98450.94;;;19.42;58.23
63009;BME280;49099;28.428;-16.488;2023-05-22T05:32:23;98458.25;;;19.33;58.82
63009;BME280;49099;28.428;-16.488;2023-05-22T05:34:51;98465.19;;;19.34;59.83
63009;BME280;49099;28.428;-16.488;2023-05-22T05:37:18;98470.75;;;19.29;59.91
63009;BME280;49099;28.428;-16.488;2023-05-22T05:39:45;98471.56;;;19.20;60.91
63009;BME280;49099;28.428;-16.488;2023-05-22T05:42:12;98467.28;;;19.19;60.04
63009;BME280;49099;28.428;-16.488;2023-05-22T05:44:40;98466.19;;;19.20;60.45
63009;BME280;49099;28.428;-16.488;2023-05-22T05:47:08;98460.66;;;19.17;60.40
63009;BME280;49099;28.428;-16.488;2023-05-22T05:49:35;98460.81;;;19.20;60.06
63009;BME280;49099;28.428;-16.488;2023-05-22T05:52:02;98452.47;;;19.05;60.36
63009;BME280;49099;28.428;-16.488;2023-05-22T05:54:30;98457.50;;;19.06;60.85
63009;BME280;49099;28.428;-16.488;2023-05-22T05:56:58;98455.47;;;19.03;60.60
63009;BME280;49099;28.428;-16.488;2023-05-22T05:59:25;98455.47;;;19.03;60.13
63009;BME280;49099;28.428;-16.488;2023-05-22T06:01:52;98454.72;;;18.94;59.99
63009;BME280;49099;28.428;-16.488;2023-05-22T06:04:19;98449.00;;;18.96;59.81
63009;BME280;49099;28.428;-16.488;2023-05-22T06:06:47;98450.91;;;18.95;59.09
63009;BME280;49099;28.428;-16.488;2023-05-22T06:09:14;98446.78;;;18.98;59.16
63009;BME280;49099;28.428;-16.488;2023-05-22T06:11:41;98451.84;;;18.90;58.71
63009;BME280;49099;28.428;-16.488;2023-05-22T06:14:08;98456.31;;;18.86;58.90
63009;BME280;49099;28.428;-16.488;2023-05-22T06:16:35;98446.81;;;18.80;57.90
63009;BME280;49099;28.428;-16.488;2023-05-22T06:19:03;98453.94;;;18.85;57.57
63009;BME280;49099;28.428;-16.488;2023-05-22T06:21:30;98471.00;;;18.89;57.25
63009;BME280;49099;28.428;-16.488;2023-05-22T06:23:57;98470.38;;;18.92;57.03
63009;BME280;49099;28.428;-16.488;2023-05-22T06:26:25;98473.53;;;18.94;57.17
63009;BME280;49099;28.428;-16.488;2023-05-22T06:28:52;98469.56;;;19.00;58.11
63009;BME280;49099;28.428;-16.488;2023-05-22T06:31:21;98475.53;;;19.14;57.29
63009;BME280;49099;28.428;-16.488;2023-05-22T06:33:49;98477.13;;;19.15;57.98
63009;BME280;49099;28.428;-16.488;2023-05-22T06:36:16;98476.00;;;19.16;57.20
63009;BME280;49099;28.428;-16.488;2023-05-22T06:38:44;98486.91;;;19.20;57.10
63009;BME280;49099;28.428;-16.488;2023-05-22T06:41:11;98488.81;;;19.19;58.41
63009;BME280;49099;28.428;-16.488;2023-05-22T06:43:39;98492.25;;;19.29;57.09
63009;BME280;49099;28.428;-16.488;2023-05-22T06:46:06;98503.00;;;19.29;57.31
63009;BME280;49099;28.428;-16.488;2023-05-22T06:48:33;98502.53;;;19.27;56.91
63009;BME280;49099;28.428;-16.488;2023-05-22T06:51:01;98508.72;;;19.27;57.08
63009;BME280;49099;28.428;-16.488;2023-05-22T06:53:28;98509.66;;;19.31;56.66
63009;BME280;49099;28.428;-16.488;2023-05-22T06:55:56;98516.28;;;19.34;56.10
63009;BME280;49099;28.428;-16.488;2023-05-22T06:58:23;98512.94;;;19.37;56.40
63009;BME280;49099;28.428;-16.488;2023-05-22T07:00:50;98518.34;;;19.37;56.00
63009;BME280;49099;28.428;-16.488;2023-05-22T07:03:17;98520.69;;;19.47;56.05
63009;BME280;49099;28.428;-16.488;2023-05-22T07:05:45;98516.69;;;19.53;55.49
63009;BME280;49099;28.428;-16.488;2023-05-22T07:08:12;98517.50;;;19.62;54.78
63009;BME280;49099;28.428;-16.488;2023-05-22T07:10:39;98516.41;;;19.63;54.73
63009;BME280;49099;28.428;-16.488;2023-05-22T07:13:07;98524.28;;;19.68;55.53
63009;BME280;49099;28.428;-16.488;2023-05-22T07:15:34;98518.88;;;19.68;55.66
63009;BME280;49099;28.428;-16.488;2023-05-22T07:18:02;98530.47;;;19.69;55.78
63009;BME280;49099;28.428;-16.488;2023-05-22T07:20:29;98530.47;;;19.69;56.28
63009;BME280;49099;28.428;-16.488;2023-05-22T07:22:56;98527.91;;;19.72;57.08
63009;BME280;49099;28.428;-16.488;2023-05-22T07:25:24;98540.09;;;19.79;56.91
63009;BME280;49099;28.428;-16.488;2023-05-22T07:27:51;98531.69;;;19.80;55.19
63009;BME280;49099;28.428;-16.488;2023-05-22T07:30:18;98529.94;;;19.75;55.60
63009;BME280;49099;28.428;-16.488;2023-05-22T07:32:46;98519.19;;;19.75;54.60
63009;BME280;49099;28.428;-16.488;2023-05-22T07:35:14;98524.72;;;19.79;52.86
63009;BME280;49099;28.428;-16.488;2023-05-22T07:37:41;98534.03;;;19.82;53.20
63009;BME280;49099;28.428;-16.488;2023-05-22T07:40:09;98525.78;;;19.87;50.78
63009;BME280;49099;28.428;-16.488;2023-05-22T07:42:36;98525.28;;;19.93;50.81
63009;BME280;49099;28.428;-16.488;2023-05-22T07:45:04;98531.94;;;19.96;50.77
63009;BME280;49099;28.428;-16.488;2023-05-22T07:47:32;98527.78;;;19.98;51.08
63009;BME280;49099;28.428;-16.488;2023-05-22T07:49:59;98524.91;;;20.03;49.94
63009;BME280;49099;28.428;-16.488;2023-05-22T07:52:30;98513.19;;;20.08;50.18
63009;BME280;49099;28.428;-16.488;2023-05-22T07:54:58;98511.69;;;20.19;49.96
63009;BME280;49099;28.428;-16.488;2023-05-22T07:57:25;98506.13;;;20.24;48.25
63009;BME280;49099;28.428;-16.488;2023-05-22T07:59:52;98501.47;;;20.34;48.70
63009;BME280;49099;28.428;-16.488;2023-05-22T08:02:19;98511.72;;;20.40;49.67
63009;BME280;49099;28.428;-16.488;2023-05-22T08:04:48;98503.16;;;20.47;49.98
63009;BME280;49099;28.428;-16.488;2023-05-22T08:07:16;98504.72;;;20.48;49.10
63009;BME280;49099;28.428;-16.488;2023-05-22T08:09:43;98506.91;;;20.54;48.08
63009;BME280;49099;28.428;-16.488;2023-05-22T08:12:12;98499.84;;;20.62;47.90
63009;BME280;49099;28.428;-16.488;2023-05-22T08:14:39;98515.19;;;20.70;49.20
63009;BME280;49099;28.428;-16.488;2023-05-22T08:17:07;98506.34;;;20.82;46.53
63009;BME280;49099;28.428;-16.488;2023-05-22T08:19:34;98514.56;;;20.85;45.82
63009;BME280;49099;28.428;-16.488;2023-05-22T08:22:01;98513.56;;;20.90;48.63
63009;BME280;49099;28.428;-16.488;2023-05-22T08:24:28;98519.66;;;20.99;46.81
63009;BME280;49099;28.428;-16.488;2023-05-22T08:26:56;98524.41;;;21.02;45.99
63009;BME280;49099;28.428;-16.488;2023-05-22T08:29:27;98539.38;;;21.12;46.03
63009;BME280;49099;28.428;-16.488;2023-05-22T08:31:55;98536.25;;;21.22;47.13
63009;BME280;49099;28.428;-16.488;2023-05-22T08:34:24;98536.78;;;21.36;45.38
63009;BME280;49099;28.428;-16.488;2023-05-22T08:36:52;98538.34;;;21.37;43.47
63009;BME280;49099;28.428;-16.488;2023-05-22T08:39:19;98539.28;;;21.41;41.43
63009;BME280;49099;28.428;-16.488;2023-05-22T08:41:46;98545.47;;;21.42;39.47
63009;BME280;49099;28.428;-16.488;2023-05-22T08:44:14;98546.69;;;21.45;42.55
63009;BME280;49099;28.428;-16.488;2023-05-22T08:46:43;98555.47;;;21.41;43.08
63009;BME280;49099;28.428;-16.488;2023-05-22T08:49:12;98566.00;;;21.34;41.13
63009;BME280;49099;28.428;-16.488;2023-05-22T08:51:40;98564.34;;;21.21;40.64
63009;BME280;49099;28.428;-16.488;2023-05-22T08:54:08;98563.66;;;21.12;42.23
63009;BME280;49099;28.428;-16.488;2023-05-22T08:56:38;98564.88;;;21.14;41.49
63009;BME280;49099;28.428;-16.488;2023-05-22T08:59:22;98577.59;;;21.14;41.06
63009;BME280;49099;28.428;-16.488;2023-05-22T09:01:50;98584.81;;;21.22;42.18
63009;BME280;49099;28.428;-16.488;2023-05-22T09:04:18;98588.91;;;21.28;43.83
63009;BME280;49099;28.428;-16.488;2023-05-22T09:06:50;98585.81;;;21.38;45.02
63009;BME280;49099;28.428;-16.488;2023-05-22T09:09:18;98583.69;;;21.44;44.58
63009;BME280;49099;28.428;-16.488;2023-05-22T09:11:45;98582.38;;;21.50;44.52
63009;BME280;49099;28.428;-16.488;2023-05-22T09:14:12;98582.72;;;21.61;45.53
63009;BME280;49099;28.428;-16.488;2023-05-22T09:16:48;98588.34;;;21.68;46.99
63009;BME280;49099;28.428;-16.488;2023-05-22T09:19:19;98587.00;;;21.62;46.19
63009;BME280;49099;28.428;-16.488;2023-05-22T09:21:47;98590.16;;;21.64;47.09
63009;BME280;49099;28.428;-16.488;2023-05-22T09:24:14;98588.16;;;21.73;46.04
63009;BME280;49099;28.428;-16.488;2023-05-22T09:26:41;98586.69;;;21.76;45.43
63009;BME280;49099;28.428;-16.488;2023-05-22T09:29:08;98593.47;;;21.82;46.46
63009;BME280;49099;28.428;-16.488;2023-05-22T09:31:43;98592.22;;;21.79;44.92
63009;BME280;49099;28.428;-16.488;2023-05-22T09:34:11;98593.56;;;21.85;45.51
63009;BME280;49099;28.428;-16.488;2023-05-22T09:36:41;98589.66;;;21.95;46.36
63009;BME280;49099;28.428;-16.488;2023-05-22T09:39:09;98599.00;;;21.97;45.06
63009;BME280;49099;28.428;-16.488;2023-05-22T09:41:38;98607.13;;;22.10;44.83
63009;BME280;49099;28.428;-16.488;2023-05-22T09:44:11;98605.78;;;22.16;45.25
63009;BME280;49099;28.428;-16.488;2023-05-22T09:46:39;98604.19;;;22.15;45.39
63009;BME280;49099;28.428;-16.488;2023-05-22T09:49:07;98605.53;;;22.09;46.00
63009;BME280;49099;28.428;-16.488;2023-05-22T09:51:38;98611.59;;;22.06;46.23
63009;BME280;49099;28.428;-16.488;2023-05-22T09:54:07;98613.66;;;22.09;45.43
63009;BME280;49099;28.428;-16.488;2023-05-22T09:56:35;98613.44;;;22.14;46.56
63009;BME280;49099;28.428;-16.488;2023-05-22T09:59:07;98621.75;;;22.09;47.25
63009;BME280;49099;28.428;-16.488;2023-05-22T10:01:37;98628.50;;;22.03;47.64
63009;BME280;49099;28.428;-16.488;2023-05-22T10:04:05;98623.97;;;22.07;48.28
63009;BME280;49099;28.428;-16.488;2023-05-22T10:06:36;98615.25;;;22.22;47.71
63009;BME280;49099;28.428;-16.488;2023-05-22T10:09:06;98617.03;;;22.30;47.42
63009;BME280;49099;28.428;-16.488;2023-05-22T10:11:37;98620.88;;;22.41;48.16
63009;BME280;49099;28.428;-16.488;2023-05-22T10:14:04;98617.03;;;22.30;48.65
63009;BME280;49099;28.428;-16.488;2023-05-22T10:16:32;98624.47;;;22.21;49.49
63009;BME280;49099;28.428;-16.488;2023-05-22T10:19:04;98622.91;;;22.20;49.10
63009;BME280;49099;28.428;-16.488;2023-05-22T10:21:34;98626.16;;;22.25;49.10
63009;BME280;49099;28.428;-16.488;2023-05-22T10:24:03;98625.59;;;22.32;49.61
63009;BME280;49099;28.428;-16.488;2023-05-22T10:26:32;98628.06;;;22.25;49.41
63009;BME280;49099;28.428;-16.488;2023-05-22T10:29:16;98623.78;;;22.24;49.51
63009;BME280;49099;28.428;-16.488;2023-05-22T10:32:17;98625.16;;;22.18;49.39
63009;BME280;49099;28.428;-16.488;2023-05-22T10:40:20;98626.00;;;21.97;50.20
63009;BME280;49099;28.428;-16.488;2023-05-22T10:42:48;98633.88;;;22.03;51.46
63009;BME280;49099;28.428;-16.488;2023-05-22T10:45:15;98626.00;;;21.97;51.31
63009;BME280;49099;28.428;-16.488;2023-05-22T10:47:43;98629.38;;;21.94;50.70
63009;BME280;49099;28.428;-16.488;2023-05-22T10:50:10;98633.34;;;22.09;50.88
63009;BME280;49099;28.428;-16.488;2023-05-22T10:52:38;98628.41;;;22.23;50.49
63009;BME280;49099;28.428;-16.488;2023-05-22T10:55:07;98627.84;;;22.30;50.16
63009;BME280;49099;28.428;-16.488;2023-05-22T10:57:38;98627.16;;;22.33;49.35
63009;BME280;49099;28.428;-16.488;2023-05-22T11:02:40;98630.09;;;22.40;48.50
63009;BME280;49099;28.428;-16.488;2023-05-22T11:11:09;98634.72;;;22.52;47.06
63009;BME280;49099;28.428;-16.488;2023-05-22T11:13:37;98626.59;;;22.52;46.88
63009;BME280;49099;28.428;-16.488;2023-05-22T11:16:05;98627.63;;;22.47;47.00
63009;BME280;49099;28.428;-16.488;2023-05-22T11:18:32;98625.81;;;22.39;46.87
63009;BME280;49099;28.428;-16.488;2023-05-22T11:20:59;98618.50;;;22.40;46.71
63009;BME280;49099;28.428;-16.488;2023-05-22T11:23:26;98629.00;;;22.41;46.29
63009;BME280;49099;28.428;-16.488;2023-05-22T11:25:54;98625.94;;;22.43;46.64
63009;BME280;49099;28.428;-16.488;2023-05-22T11:28:21;98627.53;;;22.44;45.59
63009;BME280;49099;28.428;-16.488;2023-05-22T11:30:49;98625.72;;;22.36;46.46
63009;BME280;49099;28.428;-16.488;2023-05-22T11:33:18;98622.91;;;22.44;45.91
63009;BME280;49099;28.428;-16.488;2023-05-22T11:35:46;98618.59;;;22.56;44.75
63009;BME280;49099;28.428;-16.488;2023-05-22T11:38:15;98602.16;;;22.73;45.13
63009;BME280;49099;28.428;-16.488;2023-05-22T11:40:42;98607.19;;;22.87;43.78
63009;BME280;49099;28.428;-16.488;2023-05-22T11:43:09;98609.75;;;22.95;44.05
63009;BME280;49099;28.428;-16.488;2023-05-22T11:45:38;98603.91;;;23.05;44.56
63009;BME280;49099;28.428;-16.488;2023-05-22T11:48:07;98602.13;;;22.97;44.69
63009;BME280;49099;28.428;-16.488;2023-05-22T11:50:34;98598.94;;;22.95;42.20
63009;BME280;49099;28.428;-16.488;2023-05-22T11:53:09;98593.53;;;22.95;42.40
63009;BME280;49099;28.428;-16.488;2023-05-22T11:55:36;98584.53;;;23.03;40.08
63009;BME280;49099;28.428;-16.488;2023-05-22T11:58:03;98593.28;;;23.13;41.16
63009;BME280;49099;28.428;-16.488;2023-05-22T12:00:31;98584.91;;;23.18;42.63
63009;BME280;49099;28.428;-16.488;2023-05-22T12:02:58;98592.97;;;23.30;42.68
63009;BME280;49099;28.428;-16.488;2023-05-22T12:05:25;98593.16;;;23.37;41.58
63009;BME280;49099;28.428;-16.488;2023-05-22T12:07:52;98582.59;;;23.32;41.57
63009;BME280;49099;28.428;-16.488;2023-05-22T12:10:20;98585.88;;;23.25;39.08
63009;BME280;49099;28.428;-16.488;2023-05-22T12:12:47;98573.41;;;23.21;38.07
63009;BME280;49099;28.428;-16.488;2023-05-22T12:15:17;98574.28;;;23.25;40.15
63009;BME280;49099;28.428;-16.488;2023-05-22T12:17:46;98580.31;;;23.34;40.39
63009;BME280;49099;28.428;-16.488;2023-05-22T12:20:13;98579.44;;;23.30;39.87
63009;BME280;49099;28.428;-16.488;2023-05-22T12:22:42;98570.47;;;23.42;40.14
63009;BME280;49099;28.428;-16.488;2023-05-22T12:25:15;98581.16;;;23.50;37.74
63009;BME280;49099;28.428;-16.488;2023-05-22T12:27:43;98576.59;;;23.54;39.67
63009;BME280;49099;28.428;-16.488;2023-05-22T12:30:14;98564.69;;;23.71;40.79
63009;BME280;49099;28.428;-16.488;2023-05-22T12:32:49;98565.13;;;23.73;37.32
63009;BME280;49099;28.428;-16.488;2023-05-22T12:35:17;98558.66;;;23.78;37.94
63009;BME280;49099;28.428;-16.488;2023-05-22T12:37:49;98549.31;;;23.75;34.81
63009;BME280;49099;28.428;-16.488;2023-05-22T12:40:16;98554.28;;;23.73;37.73
63009;BME280;49099;28.428;-16.488;2023-05-22T12:42:44;98550.72;;;23.69;38.31
63009;BME280;49099;28.428;-16.488;2023-05-22T12:45:11;98557.63;;;23.67;37.33
63009;BME280;49099;28.428;-16.488;2023-05-22T12:47:39;98564.59;;;23.68;38.94
63009;BME280;49099;28.428;-16.488;2023-05-22T12:50:07;98551.25;;;23.75;38.04
63009;BME280;49099;28.428;-16.488;2023-05-22T12:52:34;98546.00;;;23.66;38.79
63009;BME280;49099;28.428;-16.488;2023-05-22T12:55:02;98548.88;;;23.73;39.39
63009;BME280;49099;28.428;-16.488;2023-05-22T12:57:30;98557.63;;;23.67;40.10
63009;BME280;49099;28.428;-16.488;2023-05-22T12:59:57;98561.91;;;23.68;41.41
63009;BME280;49099;28.428;-16.488;2023-05-22T13:02:24;98557.41;;;23.59;41.25
63009;BME280;49099;28.428;-16.488;2023-05-22T13:04:51;98570.34;;;23.50;41.23
63009;BME280;49099;28.428;-16.488;2023-05-22T13:07:19;98557.72;;;23.42;39.23
63009;BME280;49099;28.428;-16.488;2023-05-22T13:09:46;98565.50;;;23.44;40.51
63009;BME280;49099;28.428;-16.488;2023-05-22T13:12:13;98566.28;;;23.44;40.25
63009;BME280;49099;28.428;-16.488;2023-05-22T13:14:40;98561.06;;;23.51;39.31